Knoxville, IL (61448)

1:27 AM CDT on August 30, 2016 (GMT -0500)
KILKNOXV2 | | Change Station

Elev 773 ft 40.91 °N, 90.29 °W | Updated 11 minutes ago

Thunderstorm
Thunderstorm
72.2 °F
Feels Like 72.2 °F
N
0.0
Wind Variable Wind from East
Gusts 1.0 mph

Today
High -- | Low -- °F
--% Chance of Precip.
Yesterday
High -- | Low -- °F
Precip. -- in
Pressure 30.17 in
Visibility 10.0 miles
Clouds Mostly Cloudy 3900 ft
Overcast 5000 ft
Dew Point 71 °F
Humidity 95%
Rainfall 0.00 in
Snow Depth Not available.
6:26 AM 7:35 PM
Waning Crescent, 5% visible
METAR KGBG 300615Z AUTO 00000KT 10SM TS BKN039 OVC050 22/21 A3017 RMK AO2 LTG DSNT W T02220211
Pressure 30.17 in
Visibility 10.0 miles
Clouds Mostly Cloudy 3900 ft
Overcast 5000 ft
Dew Point 71 °F
Humidity 95%
Rainfall 0.00 in
Snow Depth Not available.
6:26 AM 7:35 PM
Waning Crescent, 5% visible
METAR KGBG 300615Z AUTO 00000KT 10SM TS BKN039 OVC050 22/21 A3017 RMK AO2 LTG DSNT W T02220211

10-Day Weather Forecast

Almanac

Astronomy

Aug. 30, 2016 Rise Set
Actual Time
Civil Twilight
Nautical Twilight
Astronomical Twilight
Moon
Length of Visible Light
Length of Day
Tomorrow will be .
, % of the Moon is Illuminated

Today's Extremes

State Highs State Lows

Community

WunderPhotos

Upload Photos

1,935,795 photos uploaded!

WunderBlog® & News

Nearby

Air Quality

  Air Quality AQ Index Pollutant
Not available.

Snow Depth

Station Depth Elevation

Earthquake Activity

City Distance Mag. Time & Date
Minimum magnitude displayed is 2.5.

Coastal Water Temperatures

Place Temperature

Stations

Nearby Weather Stations

Station Location Temp. Windchill Dew Point Humidity Wind Precip. Elev Updated Type
                   

Watches & Warnings

There are currently no watches in effect.